sensor_id;sensor_type;location;lat;lon;timestamp;P1;durP1;ratioP1;P2;durP2;ratioP2
75400;SDS011;63974;47.538;18.972;2023-06-26T00:01:17;7.47;;;4.25;;
75400;SDS011;63974;47.538;18.972;2023-06-26T00:04:23;6.35;;;4.30;;
75400;SDS011;63974;47.538;18.972;2023-06-26T00:07:26;7.70;;;4.07;;
75400;SDS011;63974;47.538;18.972;2023-06-26T00:10:28;5.65;;;3.97;;
75400;SDS011;63974;47.538;18.972;2023-06-26T00:13:31;8.35;;;4.30;;
75400;SDS011;63974;47.538;18.972;2023-06-26T00:16:34;6.25;;;4.30;;
75400;SDS011;63974;47.538;18.972;2023-06-26T00:19:37;8.95;;;4.70;;
75400;SDS011;63974;47.538;18.972;2023-06-26T00:22:40;7.17;;;4.47;;
75400;SDS011;63974;47.538;18.972;2023-06-26T00:25:43;9.68;;;4.70;;
75400;SDS011;63974;47.538;18.972;2023-06-26T00:28:46;7.18;;;4.60;;
75400;SDS011;63974;47.538;18.972;2023-06-26T00:31:49;7.50;;;4.68;;
75400;SDS011;63974;47.538;18.972;2023-06-26T00:34:52;6.07;;;4.53;;
75400;SDS011;63974;47.538;18.972;2023-06-26T00:37:55;6.93;;;4.33;;
75400;SDS011;63974;47.538;18.972;2023-06-26T00:40:58;8.05;;;4.72;;
75400;SDS011;63974;47.538;18.972;2023-06-26T00:44:01;6.18;;;4.82;;
75400;SDS011;63974;47.538;18.972;2023-06-26T00:47:04;6.85;;;4.55;;
75400;SDS011;63974;47.538;18.972;2023-06-26T00:50:08;7.78;;;4.50;;
75400;SDS011;63974;47.538;18.972;2023-06-26T00:53:11;7.00;;;4.43;;
75400;SDS011;63974;47.538;18.972;2023-06-26T00:56:14;9.18;;;4.30;;
75400;SDS011;63974;47.538;18.972;2023-06-26T00:59:18;9.20;;;4.82;;
75400;SDS011;63974;47.538;18.972;2023-06-26T01:02:22;6.88;;;4.43;;
75400;SDS011;63974;47.538;18.972;2023-06-26T01:05:26;9.68;;;4.57;;
75400;SDS011;63974;47.538;18.972;2023-06-26T01:08:30;8.33;;;5.00;;
75400;SDS011;63974;47.538;18.972;2023-06-26T01:11:33;7.95;;;4.90;;
75400;SDS011;63974;47.538;18.972;2023-06-26T01:14:36;7.30;;;4.60;;
75400;SDS011;63974;47.538;18.972;2023-06-26T01:17:39;9.68;;;4.22;;
75400;SDS011;63974;47.538;18.972;2023-06-26T01:20:45;6.40;;;4.82;;
75400;SDS011;63974;47.538;18.972;2023-06-26T01:24:02;6.67;;;4.40;;
75400;SDS011;63974;47.538;18.972;2023-06-26T01:27:11;7.45;;;4.35;;
75400;SDS011;63974;47.538;18.972;2023-06-26T01:30:16;10.43;;;4.93;;
75400;SDS011;63974;47.538;18.972;2023-06-26T01:33:20;12.30;;;4.88;;
75400;SDS011;63974;47.538;18.972;2023-06-26T01:36:26;6.10;;;4.40;;
75400;SDS011;63974;47.538;18.972;2023-06-26T01:39:29;8.50;;;4.90;;
75400;SDS011;63974;47.538;18.972;2023-06-26T01:42:32;7.75;;;4.93;;
75400;SDS011;63974;47.538;18.972;2023-06-26T01:45:36;6.22;;;4.28;;
75400;SDS011;63974;47.538;18.972;2023-06-26T01:48:59;8.70;;;4.47;;
75400;SDS011;63974;47.538;18.972;2023-06-26T01:52:14;7.95;;;4.45;;
75400;SDS011;63974;47.538;18.972;2023-06-26T01:58:51;8.10;;;5.28;;
75400;SDS011;63974;47.538;18.972;2023-06-26T02:01:57;8.85;;;4.35;;
75400;SDS011;63974;47.538;18.972;2023-06-26T02:05:00;8.18;;;4.70;;
75400;SDS011;63974;47.538;18.972;2023-06-26T02:08:03;11.93;;;4.22;;
75400;SDS011;63974;47.538;18.972;2023-06-26T02:11:06;10.43;;;3.90;;
75400;SDS011;63974;47.538;18.972;2023-06-26T02:14:09;6.63;;;4.50;;
75400;SDS011;63974;47.538;18.972;2023-06-26T02:17:13;14.50;;;4.53;;
75400;SDS011;63974;47.538;18.972;2023-06-26T02:20:16;7.57;;;4.05;;
75400;SDS011;63974;47.538;18.972;2023-06-26T02:23:18;7.10;;;4.28;;
75400;SDS011;63974;47.538;18.972;2023-06-26T02:26:21;10.17;;;4.83;;
75400;SDS011;63974;47.538;18.972;2023-06-26T02:29:24;9.30;;;4.40;;
75400;SDS011;63974;47.538;18.972;2023-06-26T02:32:27;7.47;;;4.82;;
75400;SDS011;63974;47.538;18.972;2023-06-26T02:35:30;8.02;;;4.43;;
75400;SDS011;63974;47.538;18.972;2023-06-26T02:38:35;7.88;;;4.35;;
75400;SDS011;63974;47.538;18.972;2023-06-26T02:41:38;9.80;;;4.40;;
75400;SDS011;63974;47.538;18.972;2023-06-26T02:44:41;10.18;;;4.75;;
75400;SDS011;63974;47.538;18.972;2023-06-26T02:47:44;9.32;;;4.32;;
75400;SDS011;63974;47.538;18.972;2023-06-26T02:50:47;10.10;;;4.30;;
75400;SDS011;63974;47.538;18.972;2023-06-26T02:53:50;7.72;;;4.38;;
75400;SDS011;63974;47.538;18.972;2023-06-26T02:56:53;8.23;;;4.10;;
75400;SDS011;63974;47.538;18.972;2023-06-26T03:00:01;9.15;;;4.20;;
75400;SDS011;63974;47.538;18.972;2023-06-26T03:03:05;12.02;;;5.32;;
75400;SDS011;63974;47.538;18.972;2023-06-26T03:06:08;7.68;;;4.40;;
75400;SDS011;63974;47.538;18.972;2023-06-26T03:09:11;9.18;;;4.85;;
75400;SDS011;63974;47.538;18.972;2023-06-26T03:12:14;7.60;;;4.20;;
75400;SDS011;63974;47.538;18.972;2023-06-26T03:15:17;11.30;;;4.32;;
75400;SDS011;63974;47.538;18.972;2023-06-26T03:18:21;7.85;;;4.47;;
75400;SDS011;63974;47.538;18.972;2023-06-26T03:21:24;7.25;;;3.90;;
75400;SDS011;63974;47.538;18.972;2023-06-26T03:24:28;8.52;;;4.63;;
75400;SDS011;63974;47.538;18.972;2023-06-26T03:27:32;7.43;;;4.40;;
75400;SDS011;63974;47.538;18.972;2023-06-26T03:30:35;7.95;;;4.45;;
75400;SDS011;63974;47.538;18.972;2023-06-26T03:33:38;7.30;;;4.70;;
75400;SDS011;63974;47.538;18.972;2023-06-26T03:36:42;8.50;;;4.90;;
75400;SDS011;63974;47.538;18.972;2023-06-26T03:39:45;8.27;;;5.07;;
75400;SDS011;63974;47.538;18.972;2023-06-26T03:42:48;9.40;;;4.47;;
75400;SDS011;63974;47.538;18.972;2023-06-26T03:45:51;12.05;;;6.07;;
75400;SDS011;63974;47.538;18.972;2023-06-26T03:48:54;8.23;;;4.72;;
75400;SDS011;63974;47.538;18.972;2023-06-26T03:51:57;6.63;;;4.57;;
75400;SDS011;63974;47.538;18.972;2023-06-26T03:55:00;10.77;;;5.60;;
75400;SDS011;63974;47.538;18.972;2023-06-26T03:58:03;9.83;;;5.17;;
75400;SDS011;63974;47.538;18.972;2023-06-26T04:01:07;9.88;;;5.05;;
75400;SDS011;63974;47.538;18.972;2023-06-26T04:04:09;11.35;;;5.25;;
75400;SDS011;63974;47.538;18.972;2023-06-26T04:07:12;14.68;;;5.80;;
75400;SDS011;63974;47.538;18.972;2023-06-26T04:10:15;9.05;;;5.38;;
75400;SDS011;63974;47.538;18.972;2023-06-26T04:13:18;7.00;;;4.87;;
75400;SDS011;63974;47.538;18.972;2023-06-26T04:16:21;9.23;;;5.18;;
75400;SDS011;63974;47.538;18.972;2023-06-26T04:19:27;8.80;;;5.55;;
75400;SDS011;63974;47.538;18.972;2023-06-26T04:22:30;12.05;;;5.45;;
75400;SDS011;63974;47.538;18.972;2023-06-26T04:25:33;11.65;;;5.80;;
75400;SDS011;63974;47.538;18.972;2023-06-26T04:28:36;11.17;;;5.30;;
75400;SDS011;63974;47.538;18.972;2023-06-26T04:31:39;8.63;;;5.72;;
75400;SDS011;63974;47.538;18.972;2023-06-26T04:34:42;10.52;;;5.88;;
75400;SDS011;63974;47.538;18.972;2023-06-26T04:37:48;7.05;;;5.13;;
75400;SDS011;63974;47.538;18.972;2023-06-26T04:40:51;7.57;;;5.13;;
75400;SDS011;63974;47.538;18.972;2023-06-26T04:43:54;9.20;;;5.60;;
75400;SDS011;63974;47.538;18.972;2023-06-26T04:46:56;8.38;;;5.65;;
75400;SDS011;63974;47.538;18.972;2023-06-26T04:49:59;9.63;;;6.15;;
75400;SDS011;63974;47.538;18.972;2023-06-26T04:53:02;8.10;;;6.22;;
75400;SDS011;63974;47.538;18.972;2023-06-26T04:56:05;10.57;;;6.28;;
75400;SDS011;63974;47.538;18.972;2023-06-26T04:59:08;12.53;;;5.77;;
75400;SDS011;63974;47.538;18.972;2023-06-26T05:02:15;11.02;;;6.55;;
75400;SDS011;63974;47.538;18.972;2023-06-26T05:05:18;10.57;;;6.38;;
75400;SDS011;63974;47.538;18.972;2023-06-26T05:08:21;10.20;;;6.18;;
75400;SDS011;63974;47.538;18.972;2023-06-26T05:11:25;11.35;;;5.93;;
75400;SDS011;63974;47.538;18.972;2023-06-26T05:14:28;11.77;;;6.90;;
75400;SDS011;63974;47.538;18.972;2023-06-26T05:17:31;10.25;;;7.32;;
75400;SDS011;63974;47.538;18.972;2023-06-26T05:20:34;11.38;;;6.60;;
75400;SDS011;63974;47.538;18.972;2023-06-26T05:23:38;11.63;;;7.60;;
75400;SDS011;63974;47.538;18.972;2023-06-26T05:26:42;9.73;;;6.95;;
75400;SDS011;63974;47.538;18.972;2023-06-26T05:29:45;9.00;;;7.13;;
75400;SDS011;63974;47.538;18.972;2023-06-26T05:32:48;10.55;;;7.28;;
75400;SDS011;63974;47.538;18.972;2023-06-26T05:35:52;10.13;;;7.40;;
75400;SDS011;63974;47.538;18.972;2023-06-26T05:38:55;9.57;;;7.57;;
75400;SDS011;63974;47.538;18.972;2023-06-26T05:41:58;12.55;;;8.00;;
75400;SDS011;63974;47.538;18.972;2023-06-26T05:45:02;12.20;;;6.83;;
75400;SDS011;63974;47.538;18.972;2023-06-26T05:48:04;10.02;;;6.95;;
75400;SDS011;63974;47.538;18.972;2023-06-26T05:51:08;9.15;;;5.78;;
75400;SDS011;63974;47.538;18.972;2023-06-26T05:54:11;8.43;;;6.90;;
75400;SDS011;63974;47.538;18.972;2023-06-26T05:57:15;9.70;;;5.70;;
75400;SDS011;63974;47.538;18.972;2023-06-26T06:00:18;10.50;;;6.60;;
75400;SDS011;63974;47.538;18.972;2023-06-26T06:03:21;9.45;;;7.00;;
75400;SDS011;63974;47.538;18.972;2023-06-26T06:06:25;7.90;;;5.68;;
75400;SDS011;63974;47.538;18.972;2023-06-26T06:09:28;8.95;;;5.88;;
75400;SDS011;63974;47.538;18.972;2023-06-26T06:12:31;8.50;;;6.38;;
75400;SDS011;63974;47.538;18.972;2023-06-26T06:15:34;7.23;;;5.30;;
75400;SDS011;63974;47.538;18.972;2023-06-26T06:18:37;7.57;;;5.70;;
75400;SDS011;63974;47.538;18.972;2023-06-26T06:21:39;8.27;;;6.03;;
75400;SDS011;63974;47.538;18.972;2023-06-26T06:24:42;6.68;;;5.78;;
75400;SDS011;63974;47.538;18.972;2023-06-26T06:27:46;8.15;;;5.60;;
75400;SDS011;63974;47.538;18.972;2023-06-26T06:30:49;6.30;;;5.67;;
75400;SDS011;63974;47.538;18.972;2023-06-26T06:33:52;6.63;;;5.75;;
75400;SDS011;63974;47.538;18.972;2023-06-26T06:36:55;6.57;;;5.30;;
75400;SDS011;63974;47.538;18.972;2023-06-26T06:39:57;8.25;;;6.55;;
75400;SDS011;63974;47.538;18.972;2023-06-26T06:43:01;8.43;;;5.28;;
75400;SDS011;63974;47.538;18.972;2023-06-26T06:46:04;9.73;;;6.27;;
75400;SDS011;63974;47.538;18.972;2023-06-26T06:49:08;7.68;;;6.05;;
75400;SDS011;63974;47.538;18.972;2023-06-26T06:52:11;7.03;;;6.05;;
75400;SDS011;63974;47.538;18.972;2023-06-26T06:55:14;8.65;;;5.25;;
75400;SDS011;63974;47.538;18.972;2023-06-26T06:58:17;8.85;;;6.57;;
75400;SDS011;63974;47.538;18.972;2023-06-26T07:01:21;8.67;;;6.13;;
75400;SDS011;63974;47.538;18.972;2023-06-26T07:04:24;9.10;;;5.80;;
75400;SDS011;63974;47.538;18.972;2023-06-26T07:07:28;10.07;;;5.85;;
75400;SDS011;63974;47.538;18.972;2023-06-26T07:10:33;8.00;;;6.13;;
75400;SDS011;63974;47.538;18.972;2023-06-26T07:13:36;6.93;;;5.88;;
75400;SDS011;63974;47.538;18.972;2023-06-26T07:16:39;7.70;;;5.93;;
75400;SDS011;63974;47.538;18.972;2023-06-26T07:19:42;8.77;;;6.03;;
75400;SDS011;63974;47.538;18.972;2023-06-26T07:22:45;7.43;;;5.95;;
75400;SDS011;63974;47.538;18.972;2023-06-26T07:25:49;6.80;;;5.95;;
75400;SDS011;63974;47.538;18.972;2023-06-26T07:28:52;7.50;;;6.20;;
75400;SDS011;63974;47.538;18.972;2023-06-26T07:31:54;7.00;;;5.50;;
75400;SDS011;63974;47.538;18.972;2023-06-26T07:34:57;7.90;;;5.25;;
75400;SDS011;63974;47.538;18.972;2023-06-26T07:38:00;7.55;;;5.88;;
75400;SDS011;63974;47.538;18.972;2023-06-26T07:41:03;7.65;;;5.72;;
75400;SDS011;63974;47.538;18.972;2023-06-26T07:44:06;8.70;;;5.75;;
75400;SDS011;63974;47.538;18.972;2023-06-26T07:47:09;9.20;;;6.13;;
75400;SDS011;63974;47.538;18.972;2023-06-26T07:50:12;8.00;;;5.65;;
75400;SDS011;63974;47.538;18.972;2023-06-26T07:53:18;7.88;;;6.25;;
75400;SDS011;63974;47.538;18.972;2023-06-26T07:56:20;7.65;;;5.25;;
75400;SDS011;63974;47.538;18.972;2023-06-26T07:59:24;10.40;;;5.53;;
75400;SDS011;63974;47.538;18.972;2023-06-26T08:02:28;7.33;;;5.63;;
75400;SDS011;63974;47.538;18.972;2023-06-26T08:05:31;8.68;;;6.35;;
75400;SDS011;63974;47.538;18.972;2023-06-26T08:08:34;7.13;;;5.68;;
75400;SDS011;63974;47.538;18.972;2023-06-26T08:11:37;7.05;;;5.78;;
75400;SDS011;63974;47.538;18.972;2023-06-26T08:14:39;7.70;;;5.80;;
75400;SDS011;63974;47.538;18.972;2023-06-26T08:17:42;7.80;;;6.00;;
75400;SDS011;63974;47.538;18.972;2023-06-26T08:20:45;8.15;;;5.53;;
75400;SDS011;63974;47.538;18.972;2023-06-26T08:23:48;6.40;;;5.70;;
75400;SDS011;63974;47.538;18.972;2023-06-26T08:26:51;7.57;;;5.55;;
75400;SDS011;63974;47.538;18.972;2023-06-26T08:29:53;6.70;;;5.35;;
75400;SDS011;63974;47.538;18.972;2023-06-26T08:32:56;6.50;;;5.40;;
75400;SDS011;63974;47.538;18.972;2023-06-26T08:35:59;8.38;;;5.75;;
75400;SDS011;63974;47.538;18.972;2023-06-26T08:39:02;6.97;;;6.20;;
75400;SDS011;63974;47.538;18.972;2023-06-26T08:42:07;6.70;;;5.32;;
75400;SDS011;63974;47.538;18.972;2023-06-26T08:45:10;8.02;;;6.00;;
75400;SDS011;63974;47.538;18.972;2023-06-26T08:48:14;7.63;;;5.43;;
75400;SDS011;63974;47.538;18.972;2023-06-26T08:51:17;8.00;;;5.65;;
75400;SDS011;63974;47.538;18.972;2023-06-26T08:54:31;6.45;;;5.05;;
75400;SDS011;63974;47.538;18.972;2023-06-26T08:57:40;8.57;;;5.22;;
75400;SDS011;63974;47.538;18.972;2023-06-26T09:00:44;7.50;;;4.90;;
75400;SDS011;63974;47.538;18.972;2023-06-26T09:03:48;6.27;;;4.93;;
75400;SDS011;63974;47.538;18.972;2023-06-26T09:06:51;7.00;;;5.15;;
75400;SDS011;63974;47.538;18.972;2023-06-26T09:09:54;6.70;;;5.72;;
75400;SDS011;63974;47.538;18.972;2023-06-26T09:12:56;7.55;;;6.13;;
75400;SDS011;63974;47.538;18.972;2023-06-26T09:16:08;6.93;;;6.03;;
75400;SDS011;63974;47.538;18.972;2023-06-26T09:19:11;7.27;;;5.60;;
75400;SDS011;63974;47.538;18.972;2023-06-26T09:22:14;6.65;;;4.70;;
75400;SDS011;63974;47.538;18.972;2023-06-26T09:25:18;5.25;;;4.65;;
75400;SDS011;63974;47.538;18.972;2023-06-26T09:28:21;6.10;;;4.57;;
75400;SDS011;63974;47.538;18.972;2023-06-26T09:31:24;6.07;;;5.18;;
75400;SDS011;63974;47.538;18.972;2023-06-26T09:34:42;6.67;;;4.83;;
75400;SDS011;63974;47.538;18.972;2023-06-26T09:37:48;5.72;;;4.63;;
75400;SDS011;63974;47.538;18.972;2023-06-26T09:40:52;7.00;;;5.60;;
75400;SDS011;63974;47.538;18.972;2023-06-26T09:43:56;6.07;;;5.28;;
75400;SDS011;63974;47.538;18.972;2023-06-26T09:47:03;6.82;;;4.53;;
75400;SDS011;63974;47.538;18.972;2023-06-26T09:50:08;5.40;;;3.70;;
75400;SDS011;63974;47.538;18.972;2023-06-26T09:53:23;4.30;;;3.50;;
75400;SDS011;63974;47.538;18.972;2023-06-26T09:56:28;4.35;;;3.95;;
75400;SDS011;63974;47.538;18.972;2023-06-26T09:59:32;5.05;;;4.00;;
75400;SDS011;63974;47.538;18.972;2023-06-26T10:02:35;5.43;;;3.60;;
75400;SDS011;63974;47.538;18.972;2023-06-26T10:05:39;4.33;;;3.93;;
75400;SDS011;63974;47.538;18.972;2023-06-26T10:08:42;5.45;;;3.78;;
75400;SDS011;63974;47.538;18.972;2023-06-26T10:15:14;6.07;;;3.60;;
75400;SDS011;63974;47.538;18.972;2023-06-26T10:18:19;6.90;;;3.50;;
75400;SDS011;63974;47.538;18.972;2023-06-26T10:21:25;4.00;;;2.87;;
75400;SDS011;63974;47.538;18.972;2023-06-26T10:24:33;3.50;;;3.20;;
75400;SDS011;63974;47.538;18.972;2023-06-26T10:27:42;4.18;;;3.75;;
75400;SDS011;63974;47.538;18.972;2023-06-26T10:30:48;4.00;;;3.70;;
75400;SDS011;63974;47.538;18.972;2023-06-26T10:33:53;3.95;;;3.65;;
75400;SDS011;63974;47.538;18.972;2023-06-26T10:37:00;3.90;;;3.40;;
75400;SDS011;63974;47.538;18.972;2023-06-26T10:40:04;4.10;;;3.70;;
75400;SDS011;63974;47.538;18.972;2023-06-26T10:43:08;4.57;;;4.18;;
75400;SDS011;63974;47.538;18.972;2023-06-26T10:46:11;4.80;;;4.40;;
75400;SDS011;63974;47.538;18.972;2023-06-26T10:49:17;4.90;;;4.30;;
75400;SDS011;63974;47.538;18.972;2023-06-26T10:52:20;6.10;;;4.47;;
75400;SDS011;63974;47.538;18.972;2023-06-26T10:55:27;4.75;;;4.35;;
75400;SDS011;63974;47.538;18.972;2023-06-26T11:01:40;4.43;;;3.92;;
75400;SDS011;63974;47.538;18.972;2023-06-26T11:04:49;6.10;;;4.53;;
75400;SDS011;63974;47.538;18.972;2023-06-26T11:08:05;4.20;;;3.47;;
75400;SDS011;63974;47.538;18.972;2023-06-26T11:11:10;4.82;;;4.32;;
75400;SDS011;63974;47.538;18.972;2023-06-26T11:14:13;5.10;;;4.25;;
75400;SDS011;63974;47.538;18.972;2023-06-26T11:17:16;4.30;;;3.90;;
75400;SDS011;63974;47.538;18.972;2023-06-26T11:20:21;4.68;;;4.18;;
75400;SDS011;63974;47.538;18.972;2023-06-26T11:23:24;4.40;;;4.00;;
75400;SDS011;63974;47.538;18.972;2023-06-26T11:26:27;4.10;;;3.75;;
75400;SDS011;63974;47.538;18.972;2023-06-26T11:29:30;4.10;;;3.72;;
75400;SDS011;63974;47.538;18.972;2023-06-26T11:32:34;4.43;;;4.03;;
75400;SDS011;63974;47.538;18.972;2023-06-26T11:35:37;6.15;;;4.53;;
75400;SDS011;63974;47.538;18.972;2023-06-26T11:38:41;5.00;;;4.13;;
75400;SDS011;63974;47.538;18.972;2023-06-26T11:41:44;4.93;;;4.28;;
75400;SDS011;63974;47.538;18.972;2023-06-26T11:44:47;4.65;;;3.85;;
75400;SDS011;63974;47.538;18.972;2023-06-26T11:47:50;4.35;;;3.95;;
75400;SDS011;63974;47.538;18.972;2023-06-26T11:50:54;4.43;;;4.03;;
75400;SDS011;63974;47.538;18.972;2023-06-26T11:53:56;4.17;;;3.77;;
75400;SDS011;63974;47.538;18.972;2023-06-26T11:56:59;3.88;;;3.40;;
75400;SDS011;63974;47.538;18.972;2023-06-26T12:00:24;4.80;;;4.30;;
75400;SDS011;63974;47.538;18.972;2023-06-26T12:03:26;4.47;;;4.10;;
75400;SDS011;63974;47.538;18.972;2023-06-26T12:06:30;5.00;;;3.45;;
75400;SDS011;63974;47.538;18.972;2023-06-26T12:09:39;4.17;;;3.77;;
75400;SDS011;63974;47.538;18.972;2023-06-26T12:12:45;3.65;;;3.28;;
75400;SDS011;63974;47.538;18.972;2023-06-26T12:15:48;4.05;;;3.70;;
75400;SDS011;63974;47.538;18.972;2023-06-26T12:18:57;3.90;;;3.30;;
75400;SDS011;63974;47.538;18.972;2023-06-26T12:22:06;3.83;;;3.35;;
75400;SDS011;63974;47.538;18.972;2023-06-26T12:25:09;3.80;;;3.43;;
75400;SDS011;63974;47.538;18.972;2023-06-26T12:28:16;3.40;;;3.10;;
75400;SDS011;63974;47.538;18.972;2023-06-26T12:31:20;3.50;;;3.20;;
75400;SDS011;63974;47.538;18.972;2023-06-26T12:34:31;3.28;;;3.05;;
75400;SDS011;63974;47.538;18.972;2023-06-26T12:37:38;3.22;;;2.92;;
75400;SDS011;63974;47.538;18.972;2023-06-26T12:40:44;3.63;;;3.13;;
75400;SDS011;63974;47.538;18.972;2023-06-26T12:43:49;2.70;;;2.50;;
75400;SDS011;63974;47.538;18.972;2023-06-26T12:46:59;3.00;;;2.70;;
75400;SDS011;63974;47.538;18.972;2023-06-26T12:50:04;3.15;;;2.85;;
75400;SDS011;63974;47.538;18.972;2023-06-26T12:53:08;7.65;;;2.60;;
75400;SDS011;63974;47.538;18.972;2023-06-26T12:56:10;2.83;;;2.63;;
75400;SDS011;63974;47.538;18.972;2023-06-26T12:59:13;3.35;;;2.65;;
75400;SDS011;63974;47.538;18.972;2023-06-26T13:02:16;3.70;;;3.40;;
75400;SDS011;63974;47.538;18.972;2023-06-26T13:05:19;2.70;;;2.35;;
75400;SDS011;63974;47.538;18.972;2023-06-26T13:08:22;2.78;;;2.58;;
75400;SDS011;63974;47.538;18.972;2023-06-26T13:11:24;3.30;;;2.97;;
75400;SDS011;63974;47.538;18.972;2023-06-26T13:14:28;2.97;;;2.67;;
75400;SDS011;63974;47.538;18.972;2023-06-26T13:17:31;5.88;;;3.22;;
75400;SDS011;63974;47.538;18.972;2023-06-26T13:20:33;5.32;;;3.13;;
75400;SDS011;63974;47.538;18.972;2023-06-26T13:23:36;4.03;;;3.72;;
75400;SDS011;63974;47.538;18.972;2023-06-26T13:26:39;3.87;;;3.30;;
75400;SDS011;63974;47.538;18.972;2023-06-26T13:29:42;3.17;;;2.88;;
75400;SDS011;63974;47.538;18.972;2023-06-26T13:32:44;4.25;;;3.95;;
75400;SDS011;63974;47.538;18.972;2023-06-26T13:35:48;3.47;;;3.28;;
75400;SDS011;63974;47.538;18.972;2023-06-26T13:38:51;3.58;;;3.28;;
75400;SDS011;63974;47.538;18.972;2023-06-26T13:41:58;3.00;;;2.70;;
75400;SDS011;63974;47.538;18.972;2023-06-26T13:45:02;3.42;;;3.05;;
75400;SDS011;63974;47.538;18.972;2023-06-26T13:48:16;3.60;;;3.30;;
75400;SDS011;63974;47.538;18.972;2023-06-26T13:51:20;3.70;;;3.35;;
75400;SDS011;63974;47.538;18.972;2023-06-26T13:54:22;3.00;;;2.80;;
75400;SDS011;63974;47.538;18.972;2023-06-26T13:57:25;3.07;;;2.83;;
75400;SDS011;63974;47.538;18.972;2023-06-26T14:00:31;3.95;;;3.65;;
75400;SDS011;63974;47.538;18.972;2023-06-26T14:03:35;4.10;;;3.80;;
75400;SDS011;63974;47.538;18.972;2023-06-26T14:06:38;3.78;;;3.47;;
75400;SDS011;63974;47.538;18.972;2023-06-26T14:09:41;4.05;;;3.72;;
75400;SDS011;63974;47.538;18.972;2023-06-26T14:12:44;3.73;;;3.07;;
75400;SDS011;63974;47.538;18.972;2023-06-26T14:15:46;4.65;;;4.25;;
75400;SDS011;63974;47.538;18.972;2023-06-26T14:18:49;4.13;;;3.83;;
75400;SDS011;63974;47.538;18.972;2023-06-26T14:21:52;3.33;;;2.83;;
75400;SDS011;63974;47.538;18.972;2023-06-26T14:24:55;4.20;;;2.70;;
75400;SDS011;63974;47.538;18.972;2023-06-26T14:27:58;3.60;;;3.30;;
75400;SDS011;63974;47.538;18.972;2023-06-26T14:31:01;3.33;;;3.13;;
75400;SDS011;63974;47.538;18.972;2023-06-26T14:34:04;4.47;;;4.07;;
75400;SDS011;63974;47.538;18.972;2023-06-26T14:37:07;3.90;;;3.60;;
75400;SDS011;63974;47.538;18.972;2023-06-26T14:40:09;4.03;;;3.72;;
75400;SDS011;63974;47.538;18.972;2023-06-26T14:43:13;4.07;;;3.50;;
75400;SDS011;63974;47.538;18.972;2023-06-26T14:46:17;3.72;;;3.42;;
75400;SDS011;63974;47.538;18.972;2023-06-26T14:49:20;4.65;;;4.25;;
75400;SDS011;63974;47.538;18.972;2023-06-26T14:52:23;4.10;;;3.20;;
75400;SDS011;63974;47.538;18.972;2023-06-26T14:55:26;4.57;;;4.18;;
75400;SDS011;63974;47.538;18.972;2023-06-26T14:58:29;3.83;;;3.47;;
75400;SDS011;63974;47.538;18.972;2023-06-26T15:01:32;3.90;;;3.60;;
75400;SDS011;63974;47.538;18.972;2023-06-26T15:04:34;4.47;;;4.03;;
75400;SDS011;63974;47.538;18.972;2023-06-26T15:07:37;4.05;;;3.67;;
75400;SDS011;63974;47.538;18.972;2023-06-26T15:10:40;4.80;;;4.40;;
75400;SDS011;63974;47.538;18.972;2023-06-26T15:13:43;6.63;;;3.90;;
75400;SDS011;63974;47.538;18.972;2023-06-26T15:16:48;5.00;;;4.43;;
75400;SDS011;63974;47.538;18.972;2023-06-26T15:19:51;4.15;;;3.75;;
75400;SDS011;63974;47.538;18.972;2023-06-26T15:22:53;4.80;;;4.25;;
75400;SDS011;63974;47.538;18.972;2023-06-26T15:25:56;4.70;;;4.13;;
75400;SDS011;63974;47.538;18.972;2023-06-26T15:28:59;4.43;;;3.47;;
75400;SDS011;63974;47.538;18.972;2023-06-26T15:32:02;4.30;;;3.42;;
75400;SDS011;63974;47.538;18.972;2023-06-26T15:35:05;4.22;;;3.90;;
75400;SDS011;63974;47.538;18.972;2023-06-26T15:38:08;4.15;;;3.83;;
75400;SDS011;63974;47.538;18.972;2023-06-26T15:41:12;4.32;;;3.92;;
75400;SDS011;63974;47.538;18.972;2023-06-26T15:44:15;6.47;;;4.23;;
75400;SDS011;63974;47.538;18.972;2023-06-26T15:47:18;5.35;;;4.60;;
75400;SDS011;63974;47.538;18.972;2023-06-26T15:50:21;4.78;;;4.38;;
75400;SDS011;63974;47.538;18.972;2023-06-26T15:53:33;3.67;;;3.38;;
75400;SDS011;63974;47.538;18.972;2023-06-26T15:56:40;5.05;;;4.05;;
75400;SDS011;63974;47.538;18.972;2023-06-26T15:59:43;6.90;;;3.57;;
75400;SDS011;63974;47.538;18.972;2023-06-26T16:02:45;4.18;;;3.78;;
75400;SDS011;63974;47.538;18.972;2023-06-26T16:05:48;3.95;;;3.65;;
75400;SDS011;63974;47.538;18.972;2023-06-26T16:08:51;5.32;;;4.13;;
75400;SDS011;63974;47.538;18.972;2023-06-26T16:11:55;4.25;;;3.72;;
75400;SDS011;63974;47.538;18.972;2023-06-26T16:14:58;4.63;;;3.70;;
75400;SDS011;63974;47.538;18.972;2023-06-26T16:18:01;4.68;;;4.18;;
75400;SDS011;63974;47.538;18.972;2023-06-26T16:21:04;4.78;;;4.28;;
75400;SDS011;63974;47.538;18.972;2023-06-26T16:24:07;5.03;;;4.45;;
75400;SDS011;63974;47.538;18.972;2023-06-26T16:27:10;4.80;;;4.32;;
75400;SDS011;63974;47.538;18.972;2023-06-26T16:30:15;4.97;;;4.57;;
75400;SDS011;63974;47.538;18.972;2023-06-26T16:33:18;4.97;;;3.72;;
75400;SDS011;63974;47.538;18.972;2023-06-26T16:36:21;4.90;;;4.60;;
75400;SDS011;63974;47.538;18.972;2023-06-26T16:39:24;4.03;;;3.58;;
75400;SDS011;63974;47.538;18.972;2023-06-26T16:42:27;4.63;;;4.00;;
75400;SDS011;63974;47.538;18.972;2023-06-26T16:45:30;4.37;;;4.03;;
75400;SDS011;63974;47.538;18.972;2023-06-26T16:48:32;4.65;;;4.25;;
75400;SDS011;63974;47.538;18.972;2023-06-26T16:51:35;4.60;;;4.20;;
75400;SDS011;63974;47.538;18.972;2023-06-26T16:54:38;5.53;;;4.10;;
75400;SDS011;63974;47.538;18.972;2023-06-26T16:57:41;4.80;;;3.65;;
75400;SDS011;63974;47.538;18.972;2023-06-26T17:00:45;4.77;;;4.37;;
75400;SDS011;63974;47.538;18.972;2023-06-26T17:03:48;4.85;;;3.75;;
75400;SDS011;63974;47.538;18.972;2023-06-26T17:06:51;4.63;;;4.00;;
75400;SDS011;63974;47.538;18.972;2023-06-26T17:09:54;4.80;;;4.10;;
75400;SDS011;63974;47.538;18.972;2023-06-26T17:12:57;4.50;;;4.00;;
75400;SDS011;63974;47.538;18.972;2023-06-26T17:16:00;5.93;;;4.20;;
75400;SDS011;63974;47.538;18.972;2023-06-26T17:19:03;4.22;;;3.83;;
75400;SDS011;63974;47.538;18.972;2023-06-26T17:22:07;5.18;;;4.07;;
75400;SDS011;63974;47.538;18.972;2023-06-26T17:25:10;4.70;;;3.97;;
75400;SDS011;63974;47.538;18.972;2023-06-26T17:28:14;4.55;;;3.95;;
75400;SDS011;63974;47.538;18.972;2023-06-26T17:31:16;5.70;;;3.70;;
75400;SDS011;63974;47.538;18.972;2023-06-26T17:34:19;4.38;;;3.88;;
75400;SDS011;63974;47.538;18.972;2023-06-26T17:37:22;4.85;;;4.15;;
75400;SDS011;63974;47.538;18.972;2023-06-26T17:40:25;4.50;;;3.78;;
75400;SDS011;63974;47.538;18.972;2023-06-26T17:43:28;5.95;;;3.30;;
75400;SDS011;63974;47.538;18.972;2023-06-26T17:46:31;5.03;;;3.20;;
75400;SDS011;63974;47.538;18.972;2023-06-26T17:49:34;5.65;;;3.88;;
75400;SDS011;63974;47.538;18.972;2023-06-26T17:52:36;4.65;;;3.65;;
75400;SDS011;63974;47.538;18.972;2023-06-26T17:55:39;4.88;;;3.80;;
75400;SDS011;63974;47.538;18.972;2023-06-26T17:58:42;7.88;;;3.88;;
75400;SDS011;63974;47.538;18.972;2023-06-26T18:01:45;4.40;;;3.50;;
75400;SDS011;63974;47.538;18.972;2023-06-26T18:04:48;4.65;;;4.13;;
75400;SDS011;63974;47.538;18.972;2023-06-26T18:07:51;4.78;;;3.90;;
75400;SDS011;63974;47.538;18.972;2023-06-26T18:11:05;5.45;;;3.53;;
75400;SDS011;63974;47.538;18.972;2023-06-26T18:14:08;5.40;;;3.67;;
75400;SDS011;63974;47.538;18.972;2023-06-26T18:17:13;6.30;;;4.50;;
75400;SDS011;63974;47.538;18.972;2023-06-26T18:20:16;6.07;;;4.20;;